Time;durP1;ratioP1;P1;durP2;ratioP2;P2;SDS_P1;SDS_P2;PMS_P1;PMS_P2;Temp;Humidity;BMP_temperature;BMP_pressure;BME280_temperature;BME280_humidity;BME280_pressure;Samples;Min_cycle;Max_cycle;Signal;HPM_P1;HPM_P2
2022/03/31 00:00:44;;;;;;;16.67;9.20;;;;;;;14.11;65.79;98491.25;5109798;28;20210;-51
2022/03/31 00:03:13;;;;;;;16.63;7.47;;;;;;;14.07;66.26;98479.34;5109844;28;20194;-52
2022/03/31 00:05:41;;;;;;;20.67;9.50;;;;;;;14.00;66.54;98477.16;5109756;28;20298;-52
2022/03/31 00:08:13;;;;;;;17.73;8.60;;;;;;;14.00;66.67;98483.22;5109828;28;20195;-53
2022/03/31 00:10:42;;;;;;;12.17;7.70;;;;;;;14.04;66.35;98484.72;5109810;28;20234;-52
2022/03/31 00:13:11;;;;;;;19.90;7.93;;;;;;;13.93;66.75;98487.13;5109747;28;20205;-52
2022/03/31 00:15:39;;;;;;;20.13;9.03;;;;;;;13.97;66.73;98479.97;5109526;28;20237;-52
2022/03/31 00:18:08;;;;;;;21.30;8.40;;;;;;;13.89;67.09;98484.78;5109545;28;20218;-52
2022/03/31 00:20:35;;;;;;;17.23;8.43;;;;;;;13.95;66.77;98467.00;5109535;28;20282;-52
2022/03/31 00:23:02;;;;;;;11.87;8.00;;;;;;;13.89;67.18;98463.91;5109773;28;20195;-53
2022/03/31 00:25:30;;;;;;;14.50;7.77;;;;;;;13.86;67.19;98464.94;5109545;28;20207;-53
2022/03/31 00:27:57;;;;;;;18.73;7.60;;;;;;;13.88;67.38;98460.50;5110525;28;20210;-53
2022/03/31 00:30:25;;;;;;;15.40;7.13;;;;;;;13.77;67.66;98460.25;5113296;28;20300;-53
2022/03/31 00:32:52;;;;;;;13.70;7.63;;;;;;;13.78;67.91;98448.91;5113661;28;20220;-53
2022/03/31 00:35:19;;;;;;;20.93;8.23;;;;;;;13.82;67.70;98463.44;5113333;28;20248;-53
2022/03/31 00:37:47;;;;;;;14.47;8.27;;;;;;;13.77;68.18;98455.88;5113223;28;20318;-51
2022/03/31 00:40:17;;;;;;;14.07;7.60;;;;;;;13.76;68.30;98462.06;5113139;28;20277;-51
2022/03/31 00:42:47;;;;;;;22.13;11.03;;;;;;;13.70;68.58;98478.03;5113238;28;20293;-50
2022/03/31 00:45:16;;;;;;;17.43;8.50;;;;;;;13.68;68.84;98479.88;5113223;28;20199;-50
2022/03/31 00:47:43;;;;;;;11.27;8.00;;;;;;;13.73;68.29;98470.03;5113074;28;20191;-53
2022/03/31 00:50:12;;;;;;;14.37;7.73;;;;;;;13.76;68.69;98469.03;5113019;28;20238;-52
2022/03/31 00:52:39;;;;;;;18.50;7.67;;;;;;;13.72;68.56;98463.16;5112683;28;20199;-52
2022/03/31 00:55:08;;;;;;;12.30;8.00;;;;;;;13.67;68.78;98459.97;5112911;28;20205;-52
2022/03/31 00:57:36;;;;;;;15.53;8.03;;;;;;;13.55;69.54;98460.66;5112948;28;20222;-53
2022/03/31 01:00:07;;;;;;;17.13;8.10;;;;;;;13.51;69.86;98480.03;5112961;28;20195;-52
2022/03/31 01:02:36;;;;;;;16.37;7.67;;;;;;;13.45;70.40;98485.56;5112657;28;20195;-53
2022/03/31 01:05:04;;;;;;;21.53;7.93;;;;;;;13.32;70.70;98474.16;5112782;28;20197;-52
2022/03/31 01:07:35;;;;;;;17.17;7.30;;;;;;;13.32;71.47;98471.56;5112736;28;20195;-53
2022/03/31 01:10:02;;;;;;;15.20;8.17;;;;;;;13.15;72.29;98464.69;5112980;28;20194;-53
2022/03/31 01:12:29;;;;;;;15.93;8.60;;;;;;;13.06;72.98;98468.63;5112636;28;20633;-53
2022/03/31 01:15:09;;;;;;;13.77;8.37;;;;;;;13.10;73.17;98464.91;5112658;28;20243;-53
2022/03/31 01:17:37;;;;;;;15.10;8.17;;;;;;;13.07;72.92;98465.09;5112389;28;20638;-53
2022/03/31 01:20:07;;;;;;;13.70;8.07;;;;;;;13.01;73.46;98460.22;5112729;28;20194;-52
2022/03/31 01:22:34;;;;;;;15.37;8.77;;;;;;;12.88;74.89;98468.78;5112188;28;20197;-54
2022/03/31 01:25:05;;;;;;;18.47;8.60;;;;;;;12.87;74.72;98483.56;5112477;28;20294;-51
2022/03/31 01:27:35;;;;;;;17.70;8.77;;;;;;;12.77;75.86;98479.78;5112353;28;20235;-51
2022/03/31 01:30:02;;;;;;;21.20;9.90;;;;;;;12.75;76.09;98480.81;5112200;28;20199;-53
2022/03/31 01:32:29;;;;;;;14.47;8.60;;;;;;;12.84;75.68;98477.72;5112014;28;20281;-52
2022/03/31 01:34:56;;;;;;;15.13;8.63;;;;;;;12.77;76.29;98474.59;5112514;28;20194;-51
2022/03/31 01:37:23;;;;;;;22.67;9.20;;;;;;;12.66;76.97;98484.72;5112206;28;20244;-51
2022/03/31 01:39:51;;;;;;;19.17;8.90;;;;;;;12.61;77.97;98478.94;5111227;28;20195;-51
2022/03/31 01:42:19;;;;;;;14.00;7.83;;;;;;;12.57;78.65;98480.03;5111902;28;20263;-52
2022/03/31 01:44:46;;;;;;;20.57;8.70;;;;;;;12.62;78.53;98467.63;5111737;28;20283;-53
2022/03/31 01:47:13;;;;;;;21.73;8.80;;;;;;;12.53;78.58;98458.50;5112102;28;20213;-52
2022/03/31 01:49:40;;;;;;;15.43;8.93;;;;;;;12.52;79.49;98458.63;5111742;28;20259;-51
2022/03/31 01:52:08;;;;;;;16.73;8.93;;;;;;;12.54;79.72;98446.34;5112136;28;20663;-51
2022/03/31 01:54:35;;;;;;;16.87;8.57;;;;;;;12.46;80.50;98445.91;5111557;28;20599;-51
2022/03/31 01:57:03;;;;;;;22.60;8.37;;;;;;;12.43;80.72;98433.06;5111737;28;20575;-52
2022/03/31 01:59:36;;;;;;;14.43;8.77;;;;;;;12.41;81.32;98447.94;5111327;28;20706;-53
2022/03/31 02:02:03;;;;;;;14.90;8.70;;;;;;;12.39;81.36;98437.63;5111758;28;20191;-53
2022/03/31 02:04:30;;;;;;;19.67;8.07;;;;;;;12.33;82.13;98454.38;5111650;28;20735;-53
2022/03/31 02:06:57;;;;;;;18.10;9.63;;;;;;;12.33;82.34;98445.72;5111757;28;20191;-53
2022/03/31 02:09:24;;;;;;;17.87;9.67;;;;;;;12.44;81.75;98440.78;5111224;28;20197;-52
2022/03/31 02:11:52;;;;;;;21.70;9.90;;;;;;;12.39;82.35;98441.97;5111310;28;20195;-52
2022/03/31 02:14:20;;;;;;;15.27;9.50;;;;;;;12.44;82.10;98426.94;5111267;28;20194;-52
2022/03/31 02:16:49;;;;;;;18.60;9.43;;;;;;;12.36;82.57;98425.59;5111387;28;20267;-51
2022/03/31 02:19:15;;;;;;;13.23;7.73;;;;;;;12.31;83.22;98430.19;5111304;28;20601;-52
2022/03/31 02:21:42;;;;;;;16.60;9.13;;;;;;;12.14;84.72;98424.22;5111327;28;20247;-52
2022/03/31 02:24:09;;;;;;;15.70;9.63;;;;;;;12.25;84.20;98427.94;5111155;28;20194;-52
2022/03/31 02:26:37;;;;;;;20.53;10.07;;;;;;;12.22;84.26;98438.50;5111187;28;20667;-50
2022/03/31 02:29:04;;;;;;;20.00;9.57;;;;;;;12.26;83.91;98441.78;5111137;28;20194;-51
2022/03/31 02:31:32;;;;;;;20.20;9.73;;;;;;;12.25;83.90;98446.16;5111203;28;20217;-52
2022/03/31 02:34:00;;;;;;;18.90;9.33;;;;;;;12.28;84.06;98442.53;5111157;28;20279;-51
2022/03/31 02:36:27;;;;;;;19.83;9.23;;;;;;;12.20;84.60;98431.69;5111041;28;20200;-52
2022/03/31 02:38:54;;;;;;;19.00;9.57;;;;;;;12.16;85.23;98436.22;5110808;28;20229;-52
2022/03/31 02:41:21;;;;;;;13.67;9.77;;;;;;;12.12;85.47;98450.31;5111018;28;20190;-52
2022/03/31 02:43:49;;;;;;;12.20;8.90;;;;;;;12.13;85.47;98456.34;5110797;28;20216;-52
2022/03/31 02:46:15;;;;;;;21.83;9.53;;;;;;;12.07;86.10;98447.13;5110919;28;20201;-52
2022/03/31 02:48:42;;;;;;;23.47;10.43;;;;;;;12.04;86.43;98423.03;5110939;28;20199;-51
2022/03/31 02:51:11;;;;;;;19.17;9.67;;;;;;;12.11;86.36;98439.97;5110675;28;20191;-50
2022/03/31 02:56:22;;;;;;;27.93;10.60;;;;;;;12.11;86.20;98450.38;5110519;28;20213;-52
2022/03/31 02:58:49;;;;;;;21.17;9.37;;;;;;;12.20;85.64;98470.69;5110512;28;20219;-52
2022/03/31 03:01:16;;;;;;;15.27;9.57;;;;;;;12.15;85.97;98468.34;5110656;28;20204;-53
2022/03/31 03:03:43;;;;;;;18.63;9.90;;;;;;;12.08;86.77;98451.38;5110518;28;20198;-53
2022/03/31 03:06:13;;;;;;;20.17;10.10;;;;;;;12.07;87.06;98436.72;5110459;28;20194;-53
2022/03/31 03:08:40;;;;;;;21.27;12.67;;;;;;;12.07;86.93;98449.72;5110528;28;20285;-53
2022/03/31 03:11:07;;;;;;;27.87;11.83;;;;;;;12.09;87.03;98458.25;5110516;28;20220;-53
2022/03/31 03:13:35;;;;;;;21.00;10.97;;;;;;;12.03;88.15;98445.59;5110434;28;20191;-53
2022/03/31 03:16:05;;;;;;;20.63;13.57;;;;;;;11.99;88.67;98438.84;5110333;28;20252;-53
2022/03/31 03:18:32;;;;;;;25.43;11.67;;;;;;;11.98;88.90;98448.41;5110116;28;20314;-54
2022/03/31 03:20:59;;;;;;;23.67;10.83;;;;;;;11.91;89.71;98441.00;5110161;28;20282;-52
2022/03/31 03:23:28;;;;;;;27.80;10.70;;;;;;;11.83;89.68;98417.16;5117295;27;20286;-52
2022/03/31 03:25:55;;;;;;;20.33;10.33;;;;;;;11.96;89.12;98415.63;5115748;27;20685;-51
2022/03/31 03:28:21;;;;;;;20.60;9.90;;;;;;;11.93;89.59;98420.97;5117956;27;20190;-51
2022/03/31 03:30:49;;;;;;;17.93;10.07;;;;;;;11.91;89.54;98428.84;5122737;28;20193;-52
2022/03/31 03:33:16;;;;;;;25.57;10.27;;;;;;;12.07;87.91;98431.50;5123637;28;20221;-51
2022/03/31 03:35:43;;;;;;;13.07;9.77;;;;;;;12.13;87.53;98432.94;5123756;28;20641;-52
2022/03/31 03:38:10;;;;;;;19.70;10.37;;;;;;;12.04;87.62;98428.22;5122808;28;20209;-52
2022/03/31 03:40:38;;;;;;;22.60;10.50;;;;;;;12.04;88.00;98423.88;5123193;28;20196;-51
2022/03/31 03:43:05;;;;;;;16.10;10.50;;;;;;;11.94;88.28;98410.50;5123109;28;20596;-53
2022/03/31 03:45:33;;;;;;;22.57;10.23;;;;;;;11.97;88.28;98406.88;5123046;28;20217;-50
2022/03/31 03:48:00;;;;;;;19.13;10.27;;;;;;;11.98;87.75;98398.16;5123564;28;20193;-51
2022/03/31 03:50:27;;;;;;;25.07;10.13;;;;;;;12.09;87.56;98421.00;5122511;28;20187;-51
2022/03/31 03:52:54;;;;;;;30.43;10.47;;;;;;;12.12;87.24;98433.84;5110181;28;20697;-52
2022/03/31 03:55:23;;;;;;;18.93;10.47;;;;;;;12.12;87.23;98442.50;5117072;28;20190;-50
2022/03/31 03:57:51;;;;;;;25.33;10.23;;;;;;;12.02;86.93;98411.84;5116767;28;20206;-52
2022/03/31 04:00:18;;;;;;;22.40;10.23;;;;;;;12.07;86.84;98428.06;5109142;28;20197;-53
2022/03/31 04:02:45;;;;;;;21.33;10.27;;;;;;;12.07;87.06;98431.50;5110451;28;20286;-53
2022/03/31 04:05:12;;;;;;;23.37;10.37;;;;;;;12.10;87.25;98439.13;5113996;28;20642;-53
2022/03/31 04:07:39;;;;;;;18.70;10.33;;;;;;;12.10;87.73;98436.53;5113778;28;20281;-52
2022/03/31 04:10:09;;;;;;;20.73;10.40;;;;;;;11.97;88.19;98419.88;5114073;28;20710;-53
2022/03/31 04:12:35;;;;;;;22.00;11.30;;;;;;;11.92;89.06;98411.50;5094910;28;20230;-52
2022/03/31 04:15:06;;;;;;;24.10;10.13;;;;;;;11.91;89.46;98415.00;5093054;28;20695;-51
2022/03/31 04:17:33;;;;;;;25.77;10.77;;;;;;;12.00;92.95;98423.16;5119083;27;20247;-53
2022/03/31 04:19:59;;;;;;;21.23;10.47;;;;;;;12.11;93.60;98432.16;5122894;27;20214;-52
2022/03/31 04:22:27;;;;;;;21.13;10.00;;;;;;;12.17;92.08;98424.06;5116064;27;20615;-51
2022/03/31 04:24:54;;;;;;;20.50;10.70;;;;;;;12.16;89.89;98418.03;5111906;28;20299;-52
2022/03/31 04:27:21;;;;;;;21.97;10.97;;;;;;;12.16;89.65;98410.22;5111353;28;20194;-51
2022/03/31 04:29:48;;;;;;;21.73;10.70;;;;;;;12.19;90.05;98410.03;5112569;28;20190;-52
2022/03/31 04:32:16;;;;;;;17.50;10.13;;;;;;;12.19;89.79;98415.22;5114867;27;20201;-50
2022/03/31 04:34:43;;;;;;;22.83;11.30;;;;;;;12.26;87.87;98414.00;5122480;27;20206;-48
2022/03/31 04:37:10;;;;;;;27.50;12.63;;;;;;;12.27;88.43;98414.84;5133611;27;20220;-52
2022/03/31 04:39:36;;;;;;;26.40;11.33;;;;;;;12.39;87.50;98413.34;5128034;27;20305;-53
2022/03/31 04:42:05;;;;;;;27.17;11.37;;;;;;;12.33;88.41;98417.09;5113259;28;20519;-51
2022/03/31 04:44:32;;;;;;;23.23;11.07;;;;;;;12.38;87.97;98412.50;5111818;28;20194;-51
2022/03/31 04:46:59;;;;;;;23.87;10.73;;;;;;;12.36;87.81;98396.97;5109662;28;20305;-50
2022/03/31 04:49:27;;;;;;;23.60;10.60;;;;;;;12.44;87.45;98406.97;5112659;28;20721;-51
2022/03/31 04:51:54;;;;;;;29.30;11.57;;;;;;;12.51;86.77;98423.09;5112913;28;20702;-51
2022/03/31 04:54:21;;;;;;;20.77;11.43;;;;;;;12.49;86.42;98430.16;5111806;28;20302;-50
2022/03/31 04:56:48;;;;;;;21.40;11.30;;;;;;;12.49;86.27;98448.38;5112952;28;20613;-50
2022/03/31 04:59:15;;;;;;;24.93;11.13;;;;;;;12.49;86.24;98437.97;5112459;28;20264;-49
2022/03/31 05:01:41;;;;;;;24.53;11.33;;;;;;;12.53;85.78;98453.31;5112325;28;20224;-51
2022/03/31 05:04:09;;;;;;;22.77;10.33;;;;;;;12.67;85.00;98469.03;5112224;28;20232;-52
2022/03/31 05:06:37;;;;;;;28.87;10.83;;;;;;;12.82;85.67;98475.19;5112312;28;20222;-52
2022/03/31 05:09:04;;;;;;;26.10;10.73;;;;;;;12.83;84.01;98471.66;5111631;28;20724;-52
2022/03/31 05:11:31;;;;;;;23.90;10.83;;;;;;;12.83;83.44;98461.25;5112013;28;20218;-52
2022/03/31 05:13:58;;;;;;;22.53;9.80;;;;;;;12.80;83.10;98455.34;5111414;28;20226;-52
2022/03/31 05:16:25;;;;;;;21.53;10.10;;;;;;;12.86;82.94;98452.44;5111586;28;20730;-52
2022/03/31 05:18:52;;;;;;;24.20;11.50;;;;;;;12.86;82.87;98455.88;5111756;28;20568;-52
2022/03/31 05:21:19;;;;;;;26.77;11.40;;;;;;;12.98;82.38;98454.38;5112036;28;20225;-52
2022/03/31 05:23:48;;;;;;;24.63;11.77;;;;;;;12.99;81.85;98467.28;5111104;28;20236;-53
2022/03/31 05:26:15;;;;;;;32.67;10.83;;;;;;;12.96;81.73;98467.47;5111777;28;20223;-50
2022/03/31 05:28:42;;;;;;;31.37;11.90;;;;;;;13.00;81.46;98453.31;5112275;28;20205;-51
2022/03/31 05:31:09;;;;;;;34.27;12.30;;;;;;;13.03;81.65;98447.97;5112355;28;20194;-51
2022/03/31 05:33:36;;;;;;;34.33;12.27;;;;;;;12.94;82.12;98445.88;5112208;28;20689;-52
2022/03/31 05:36:04;;;;;;;30.43;13.80;;;;;;;12.91;83.04;98453.84;5112065;28;20187;-51
2022/03/31 05:38:30;;;;;;;37.27;15.50;;;;;;;12.90;82.96;98459.97;5112127;28;20576;-51
2022/03/31 05:40:59;;;;;;;43.27;16.50;;;;;;;12.89;83.33;98455.69;5111982;28;20199;-50
2022/03/31 05:43:26;;;;;;;42.43;17.17;;;;;;;12.94;83.68;98461.50;5111687;28;20200;-50
2022/03/31 05:45:53;;;;;;;50.20;22.13;;;;;;;12.91;84.23;98464.25;5112112;28;20586;-50
2022/03/31 05:48:20;;;;;;;41.27;23.00;;;;;;;12.92;83.59;98463.34;5111699;28;20194;-53
2022/03/31 05:50:46;;;;;;;61.47;27.50;;;;;;;12.86;83.39;98471.50;5111684;28;20194;-53
2022/03/31 05:53:15;;;;;;;52.00;26.87;;;;;;;12.91;85.06;98471.22;5112045;28;20543;-53
2022/03/31 05:55:43;;;;;;;52.33;24.90;;;;;;;12.88;84.93;98469.63;5111756;28;20301;-52
2022/03/31 05:58:11;;;;;;;47.97;23.93;;;;;;;12.86;85.39;98471.50;5108824;28;20219;-52
2022/03/31 06:00:38;;;;;;;43.30;22.50;;;;;;;12.97;84.73;98486.53;5111112;28;20222;-52
2022/03/31 06:03:07;;;;;;;45.90;20.50;;;;;;;12.94;83.26;98461.50;5110720;28;20268;-52
2022/03/31 06:05:34;;;;;;;44.17;19.83;;;;;;;13.01;83.53;98470.63;5111594;28;20666;-51
2022/03/31 06:08:01;;;;;;;41.37;18.50;;;;;;;13.11;83.25;98476.19;5111533;28;20677;-50
2022/03/31 06:10:29;;;;;;;39.43;20.57;;;;;;;13.12;82.77;98487.44;5111418;28;20316;-51
2022/03/31 06:12:56;;;;;;;49.40;21.20;;;;;;;13.15;82.80;98488.16;5111411;28;20282;-51
2022/03/31 06:15:24;;;;;;;41.50;19.83;;;;;;;13.10;83.38;98482.31;5111369;28;20560;-50
2022/03/31 06:17:51;;;;;;;42.97;16.40;;;;;;;13.06;83.51;98488.63;5111179;28;20194;-50
2022/03/31 06:20:19;;;;;;;32.57;15.57;;;;;;;13.14;82.91;98502.09;5114886;27;20720;-50
2022/03/31 06:22:46;;;;;;;38.83;15.13;;;;;;;13.00;83.97;98505.41;5118132;27;20202;-50
2022/03/31 06:25:14;;;;;;;31.00;13.57;;;;;;;13.02;83.67;98505.34;5111394;28;20603;-50
2022/03/31 06:27:41;;;;;;;29.17;11.23;;;;;;;13.01;83.00;98517.53;5111204;28;20281;-52
2022/03/31 06:30:09;;;;;;;24.07;11.03;;;;;;;12.98;82.11;98517.69;5111116;28;20563;-50
2022/03/31 06:32:38;;;;;;;20.90;10.97;;;;;;;12.99;82.41;98502.91;5111363;28;20576;-50
2022/03/31 06:35:09;;;;;;;28.60;11.13;;;;;;;12.99;82.25;98482.91;5110392;27;20219;-50
2022/03/31 06:37:37;;;;;;;32.10;11.90;;;;;;;12.99;82.50;98475.09;5116046;27;20249;-51
2022/03/31 06:40:04;;;;;;;23.47;11.37;;;;;;;12.97;81.37;98450.91;5124797;27;20218;-50
2022/03/31 06:42:31;;;;;;;21.87;11.63;;;;;;;13.06;81.45;98457.38;5118307;27;20214;-51
2022/03/31 06:44:58;;;;;;;26.80;11.67;;;;;;;13.02;81.79;98446.28;5110603;28;20194;-52
2022/03/31 06:47:25;;;;;;;28.80;12.37;;;;;;;13.01;81.95;98439.38;5110882;28;20662;-52
2022/03/31 06:49:53;;;;;;;23.57;12.03;;;;;;;13.06;81.39;98437.38;5110907;28;20207;-50
2022/03/31 06:52:20;;;;;;;28.80;12.33;;;;;;;13.16;80.96;98449.91;5110751;28;20199;-53
2022/03/31 06:54:47;;;;;;;33.90;13.63;;;;;;;13.18;81.22;98455.88;5110812;28;20201;-53
2022/03/31 06:57:14;;;;;;;28.40;13.30;;;;;;;13.24;81.01;98450.31;5110714;28;20198;-53
2022/03/31 06:59:41;;;;;;;32.77;13.40;;;;;;;13.37;80.62;98448.69;5111025;28;20608;-52
2022/03/31 07:02:09;;;;;;;35.67;15.47;;;;;;;13.49;79.39;98450.59;5110655;28;20200;-52
2022/03/31 07:04:36;;;;;;;38.30;15.70;;;;;;;13.59;78.75;98469.16;5110515;28;20575;-53
2022/03/31 07:07:05;;;;;;;27.17;14.30;;;;;;;13.78;77.90;98477.59;5127441;27;20606;-52
2022/03/31 07:09:31;;;;;;;28.73;12.77;;;;;;;14.10;75.84;98486.16;5129774;27;20200;-53
2022/03/31 07:11:58;;;;;;;32.50;12.93;;;;;;;14.23;74.59;98483.63;5130676;27;20453;-52
2022/03/31 07:14:25;;;;;;;20.60;11.03;;;;;;;14.24;73.99;98480.91;5127908;27;20590;-51
2022/03/31 07:16:52;;;;;;;31.83;14.50;;;;;;;14.30;74.33;98495.38;5129778;27;20370;-51
2022/03/31 07:19:19;;;;;;;37.17;17.80;;;;;;;14.28;73.15;98477.22;5128565;27;20221;-53
2022/03/31 07:21:47;;;;;;;32.00;17.27;;;;;;;14.31;73.17;98482.25;5101910;28;20724;-52
2022/03/31 07:24:15;;;;;;;57.73;18.27;;;;;;;14.45;72.78;98500.53;5110262;28;20218;-52
2022/03/31 07:26:42;;;;;;;34.60;16.20;;;;;;;14.61;72.28;98504.84;5109884;28;20237;-51
2022/03/31 07:29:09;;;;;;;39.67;16.47;;;;;;;14.78;71.70;98502.03;5109918;28;20299;-52
2022/03/31 07:31:36;;;;;;;29.93;15.33;;;;;;;15.03;70.32;98504.78;5107303;28;20267;-51
2022/03/31 07:34:03;;;;;;;30.03;14.73;;;;;;;15.22;69.49;98502.69;5119285;28;20213;-52
2022/03/31 07:36:30;;;;;;;31.60;12.80;;;;;;;15.38;69.15;98512.16;5109180;28;20225;-52
2022/03/31 07:38:57;;;;;;;38.93;13.77;;;;;;;15.54;67.93;98512.84;5112668;28;20202;-52
2022/03/31 07:41:25;;;;;;;29.97;13.53;;;;;;;15.74;67.59;98491.50;5114517;28;20601;-51
2022/03/31 07:43:52;;;;;;;28.53;11.63;;;;;;;15.86;67.25;98500.31;5114558;28;20716;-52
2022/03/31 07:46:19;;;;;;;31.73;12.17;;;;;;;16.19;66.43;98491.97;5118145;27;20194;-51
2022/03/31 07:48:46;;;;;;;33.73;12.23;;;;;;;16.50;64.21;98488.91;5123675;27;20200;-52
2022/03/31 07:51:13;;;;;;;29.47;12.33;;;;;;;17.01;63.39;98484.47;5134393;27;20641;-51
2022/03/31 07:53:40;;;;;;;28.93;11.43;;;;;;;17.42;61.61;98484.09;5134767;27;20198;-51
2022/03/31 07:56:08;;;;;;;23.37;11.90;;;;;;;17.89;59.56;98466.66;5134782;27;20197;-53
2022/03/31 07:58:36;;;;;;;29.67;13.17;;;;;;;18.01;58.70;98454.38;5134718;27;20194;-51
2022/03/31 08:01:03;;;;;;;29.60;12.67;;;;;;;18.02;58.66;98469.19;5134826;27;20243;-51
2022/03/31 08:03:30;;;;;;;26.50;11.40;;;;;;;17.87;59.42;98468.56;5134464;27;20190;-51
2022/03/31 08:05:57;;;;;;;22.63;11.20;;;;;;;17.32;60.96;98458.66;5134585;27;20579;-51
2022/03/31 08:08:24;;;;;;;30.33;11.07;;;;;;;17.46;61.78;98449.78;5134253;27;20609;-51
2022/03/31 08:10:51;;;;;;;22.33;11.50;;;;;;;17.84;60.31;98458.28;5113675;27;20214;-52
2022/03/31 08:13:24;;;;;;;23.77;10.47;;;;;;;17.86;60.39;98435.38;5113657;28;20203;-51
2022/03/31 08:15:53;;;;;;;27.57;12.03;;;;;;;18.33;59.37;98446.66;5113516;28;20249;-51
2022/03/31 08:18:28;;;;;;;33.33;11.53;;;;;;;18.73;57.97;98462.84;5113809;28;20214;-51
2022/03/31 08:20:57;;;;;;;23.07;11.33;;;;;;;18.97;56.77;98468.75;5113547;28;20317;-53
2022/03/31 08:23:25;;;;;;;26.33;12.17;;;;;;;18.66;57.73;98461.63;5113888;28;20202;-50
2022/03/31 08:25:54;;;;;;;18.93;11.27;;;;;;;18.44;58.40;98467.69;5121496;27;20198;-50
2022/03/31 08:28:21;;;;;;;27.07;12.20;;;;;;;18.47;58.85;98467.44;5120368;27;20191;-51
2022/03/31 08:30:49;;;;;;;25.90;13.20;;;;;;;18.38;58.47;98463.75;5114853;27;20195;-51
2022/03/31 08:33:17;;;;;;;33.93;13.40;;;;;;;18.78;58.01;98463.28;5113309;28;20236;-52
2022/03/31 08:35:44;;;;;;;30.90;12.90;;;;;;;19.44;55.89;98470.19;5113226;28;20194;-51
2022/03/31 08:38:11;;;;;;;33.37;13.27;;;;;;;19.06;56.58;98454.06;5113343;28;20666;-51
2022/03/31 08:40:38;;;;;;;32.75;13.70;;;;;;;18.74;58.16;98446.91;5111945;28;20251;-52
2022/03/31 08:43:06;;;;;;;27.65;12.95;;;;;;;18.97;57.77;98465.28;5112926;28;20203;-52
2022/03/31 08:45:36;;;;;;;28.35;13.80;;;;;;;18.51;59.33;98468.88;5113113;28;20694;-52
2022/03/31 08:48:05;;;;;;;25.93;12.17;;;;;;;18.47;59.35;98441.19;5113412;28;20206;-53
2022/03/31 08:50:35;;;;;;;31.13;13.63;;;;;;;18.40;59.75;98445.22;5112646;28;20190;-52
2022/03/31 08:53:02;;;;;;;32.33;13.20;;;;;;;18.22;60.76;98444.03;5113164;28;20577;-52
2022/03/31 08:55:29;;;;;;;22.50;12.30;;;;;;;18.23;61.11;98435.19;5113131;28;20191;-52
2022/03/31 08:57:56;;;;;;;33.53;12.63;;;;;;;18.29;61.74;98429.47;5112877;28;20201;-52
2022/03/31 09:00:25;;;;;;;24.67;12.83;;;;;;;18.36;61.58;98423.63;5115271;27;20578;-51
2022/03/31 09:02:58;;;;;;;23.43;13.07;;;;;;;18.43;61.50;98442.38;5122125;27;20205;-52
2022/03/31 09:05:25;;;;;;;22.33;12.53;;;;;;;18.40;61.86;98447.84;5121042;27;20577;-51
2022/03/31 09:07:55;;;;;;;25.33;13.33;;;;;;;18.42;61.98;98422.28;5113715;27;20198;-52
2022/03/31 09:10:28;;;;;;;34.07;14.20;;;;;;;18.11;62.79;98387.91;5113166;28;20190;-51
2022/03/31 09:12:55;;;;;;;28.60;15.17;;;;;;;17.87;63.18;98355.69;5112762;28;20195;-52
2022/03/31 09:15:21;;;;;;;24.10;13.67;;;;;;;17.74;64.95;98397.75;5119061;27;20579;-51
2022/03/31 09:17:53;;;;;;;31.27;13.37;;;;;;;17.81;65.03;98408.66;5133315;27;20202;-51
2022/03/31 09:20:21;;;;;;;23.57;13.23;;;;;;;17.70;65.64;98414.72;5133365;27;20214;-54
2022/03/31 09:22:50;;;;;;;28.97;14.07;;;;;;;17.81;66.00;98413.06;5133157;27;20202;-52
2022/03/31 09:25:28;;;;;;;33.00;13.80;;;;;;;17.78;66.13;98424.63;5133150;27;20235;-51
2022/03/31 09:27:56;;;;;;;27.60;12.83;;;;;;;17.92;65.63;98440.19;5133373;27;20194;-52
2022/03/31 09:30:24;;;;;;;28.87;13.20;;;;;;;18.06;64.81;98455.69;5133285;27;20666;-51
2022/03/31 09:32:52;;;;;;;28.73;13.30;;;;;;;18.02;64.95;98435.91;5132868;27;20190;-52
2022/03/31 09:35:22;;;;;;;22.73;13.80;;;;;;;18.12;65.22;98423.72;5133003;27;20662;-51
2022/03/31 09:37:49;;;;;;;42.00;17.47;;;;;;;18.33;64.20;98439.63;5132499;27;20190;-51
2022/03/31 09:40:18;;;;;;;31.40;16.07;;;;;;;18.55;63.51;98430.91;5132689;27;20278;-52
2022/03/31 09:42:57;;;;;;;33.07;14.13;;;;;;;18.31;63.87;98406.53;5132740;27;20669;-52
2022/03/31 09:45:24;;;;;;;41.93;12.57;;;;;;;18.36;64.54;98415.75;5132964;27;20704;-53
2022/03/31 09:47:52;;;;;;;29.63;12.87;;;;;;;18.43;63.95;98406.41;5132977;27;20196;-52
2022/03/31 09:50:20;;;;;;;25.80;13.23;;;;;;;18.63;63.47;98383.00;5124862;27;20191;-52
2022/03/31 09:52:48;;;;;;;24.53;12.53;;;;;;;18.71;63.59;98367.47;5112648;27;20694;-51
2022/03/31 09:55:18;;;;;;;25.20;12.70;;;;;;;18.75;63.88;98382.88;5115447;27;20195;-51
2022/03/31 09:57:49;;;;;;;30.40;12.70;;;;;;;18.85;63.04;98373.28;5121160;27;20210;-51
2022/03/31 10:00:20;;;;;;;27.00;11.50;;;;;;;19.24;62.08;98365.75;5114250;27;20218;-51
2022/03/31 10:02:48;;;;;;;27.98;11.73;;;;;;;19.43;61.40;98368.50;5120628;27;20268;-51
2022/03/31 10:05:16;;;;;;;29.88;11.38;;;;;;;19.37;60.75;98361.16;5120303;27;20206;-51
2022/03/31 10:07:46;;;;;;;28.42;11.30;;;;;;;19.35;60.63;98363.06;5121058;27;20705;-51
2022/03/31 10:10:14;;;;;;;29.67;11.13;;;;;;;19.30;60.71;98346.81;5122122;27;20210;-51
2022/03/31 10:12:47;;;;;;;27.88;10.85;;;;;;;19.40;59.90;98347.75;5119977;27;20226;-51
2022/03/31 10:15:19;;;;;;;29.83;11.75;;;;;;;19.19;60.52;98338.97;5119214;27;20314;-51
2022/03/31 10:17:49;;;;;;;25.27;10.85;;;;;;;19.35;60.31;98339.38;5126248;27;20218;-52
2022/03/31 10:20:21;;;;;;;30.15;10.52;;;;;;;19.61;58.95;98349.56;5110663;27;20214;-52
2022/03/31 10:25:42;;;;;;;33.03;10.10;;;;;;;19.79;56.68;98348.00;5090558;28;20237;-52
2022/03/31 10:28:10;;;;;;;35.22;10.38;;;;;;;19.88;56.95;98339.31;5090476;28;20717;-52
2022/03/31 10:30:43;;;;;;;22.17;10.23;;;;;;;20.13;56.18;98340.66;5092665;28;20694;-52
2022/03/31 10:33:11;;;;;;;29.42;11.35;;;;;;;20.23;55.38;98329.19;5116093;27;20274;-50
2022/03/31 10:35:41;;;;;;;32.20;10.07;;;;;;;20.30;55.39;98333.00;5122596;27;20253;-54
2022/03/31 10:38:13;;;;;;;27.97;10.33;;;;;;;20.49;54.71;98341.94;5111100;28;20206;-52
2022/03/31 10:40:43;;;;;;;34.85;10.15;;;;;;;20.61;53.41;98344.34;5110810;28;20228;-52
2022/03/31 10:43:20;;;;;;;31.65;10.23;;;;;;;20.80;52.57;98319.78;5110797;28;20248;-51
2022/03/31 10:45:49;;;;;;;26.92;8.75;;;;;;;20.91;52.10;98329.38;5111121;28;20202;-52
2022/03/31 10:48:19;;;;;;;25.73;8.90;;;;;;;20.87;50.93;98325.38;5111143;28;20198;-52
2022/03/31 10:50:47;;;;;;;23.75;8.93;;;;;;;20.95;50.74;98315.78;5111002;28;20553;-52
2022/03/31 10:53:14;;;;;;;42.10;11.52;;;;;;;20.96;50.28;98314.81;5123608;27;20634;-52
2022/03/31 10:55:44;;;;;;;29.48;9.32;;;;;;;21.06;49.98;98324.53;5120534;27;20589;-54
2022/03/31 10:58:20;;;;;;;30.58;9.02;;;;;;;20.84;50.03;98300.09;5129801;27;20626;-51
2022/03/31 11:00:50;;;;;;;28.65;9.60;;;;;;;20.73;50.31;98308.13;5129296;27;20213;-52
2022/03/31 11:03:19;;;;;;;32.28;11.60;;;;;;;20.79;50.00;98319.91;5129413;27;20189;-52
2022/03/31 11:05:47;;;;;;;24.17;10.75;;;;;;;20.85;49.99;98320.22;5129529;27;20198;-51
2022/03/31 11:08:17;;;;;;;28.38;9.23;;;;;;;20.82;50.06;98307.31;5129528;27;20194;-51
2022/03/31 11:10:47;;;;;;;31.58;9.45;;;;;;;20.89;50.11;98311.03;5129206;27;20266;-52
2022/03/31 11:13:15;;;;;;;30.42;8.65;;;;;;;20.91;49.75;98311.75;5127802;27;20190;-51
2022/03/31 11:15:44;;;;;;;30.88;8.75;;;;;;;20.90;49.64;98301.31;5130713;27;20408;-51
2022/03/31 11:18:12;;;;;;;30.75;8.32;;;;;;;20.76;50.02;98312.31;5131286;27;20657;-51
2022/03/31 11:20:39;;;;;;;27.25;9.48;;;;;;;20.76;50.21;98289.41;5130827;27;20218;-52
2022/03/31 11:23:07;;;;;;;29.88;8.52;;;;;;;20.82;50.11;98274.81;5131148;27;20647;-51
2022/03/31 11:25:35;;;;;;;28.95;9.00;;;;;;;20.79;50.38;98285.63;5130975;27;20193;-51
2022/03/31 11:28:09;;;;;;;33.40;9.32;;;;;;;20.78;50.59;98305.06;5131318;27;20201;-51